sensor_id;sensor_type;location;lat;lon;timestamp;temperature;humidity
22765;DHT22;11549;50.852;3.816;2023-01-30T00:02:08;6.10;99.90
22765;DHT22;11549;50.852;3.816;2023-01-30T00:04:39;6.10;99.90
22765;DHT22;11549;50.852;3.816;2023-01-30T00:07:07;6.10;99.90
22765;DHT22;11549;50.852;3.816;2023-01-30T00:09:36;6.10;99.90
22765;DHT22;11549;50.852;3.816;2023-01-30T00:12:05;6.20;99.90
22765;DHT22;11549;50.852;3.816;2023-01-30T00:14:33;6.10;99.90
22765;DHT22;11549;50.852;3.816;2023-01-30T00:17:03;6.20;99.90
22765;DHT22;11549;50.852;3.816;2023-01-30T00:19:31;6.10;99.90
22765;DHT22;11549;50.852;3.816;2023-01-30T00:22:01;6.10;99.90
22765;DHT22;11549;50.852;3.816;2023-01-30T00:24:29;6.10;99.90
22765;DHT22;11549;50.852;3.816;2023-01-30T00:26:58;6.10;99.90
22765;DHT22;11549;50.852;3.816;2023-01-30T00:29:26;6.20;99.90
22765;DHT22;11549;50.852;3.816;2023-01-30T00:31:54;6.20;99.90
22765;DHT22;11549;50.852;3.816;2023-01-30T00:34:23;6.10;99.90
22765;DHT22;11549;50.852;3.816;2023-01-30T00:36:51;6.10;99.90
22765;DHT22;11549;50.852;3.816;2023-01-30T00:39:35;6.20;99.90
22765;DHT22;11549;50.852;3.816;2023-01-30T00:42:03;6.20;99.90
22765;DHT22;11549;50.852;3.816;2023-01-30T00:44:50;6.20;99.90
22765;DHT22;11549;50.852;3.816;2023-01-30T00:47:35;6.30;99.90
22765;DHT22;11549;50.852;3.816;2023-01-30T00:50:05;6.30;99.90
22765;DHT22;11549;50.852;3.816;2023-01-30T00:52:33;6.20;99.90
22765;DHT22;11549;50.852;3.816;2023-01-30T00:55:03;6.30;99.90
22765;DHT22;11549;50.852;3.816;2023-01-30T00:57:32;6.30;99.90
22765;DHT22;11549;50.852;3.816;2023-01-30T01:00:00;6.30;99.90
22765;DHT22;11549;50.852;3.816;2023-01-30T01:02:31;6.40;99.90
22765;DHT22;11549;50.852;3.816;2023-01-30T01:04:59;6.40;99.90
22765;DHT22;11549;50.852;3.816;2023-01-30T01:07:28;6.50;99.90
22765;DHT22;11549;50.852;3.816;2023-01-30T01:09:56;6.50;99.90
22765;DHT22;11549;50.852;3.816;2023-01-30T01:12:26;6.40;99.90
22765;DHT22;11549;50.852;3.816;2023-01-30T01:14:54;6.40;99.90
22765;DHT22;11549;50.852;3.816;2023-01-30T01:17:23;6.50;99.90
22765;DHT22;11549;50.852;3.816;2023-01-30T01:19:51;6.50;99.90
22765;DHT22;11549;50.852;3.816;2023-01-30T01:22:20;6.50;99.90
22765;DHT22;11549;50.852;3.816;2023-01-30T01:24:48;6.60;99.90
22765;DHT22;11549;50.852;3.816;2023-01-30T01:27:17;6.60;99.90
22765;DHT22;11549;50.852;3.816;2023-01-30T01:29:47;6.60;99.90
22765;DHT22;11549;50.852;3.816;2023-01-30T01:32:15;6.70;99.90
22765;DHT22;11549;50.852;3.816;2023-01-30T01:34:43;6.70;99.90
22765;DHT22;11549;50.852;3.816;2023-01-30T01:37:12;6.70;99.90
22765;DHT22;11549;50.852;3.816;2023-01-30T01:39:40;6.70;99.90
22765;DHT22;11549;50.852;3.816;2023-01-30T01:42:35;6.70;99.90
22765;DHT22;11549;50.852;3.816;2023-01-30T01:45:15;6.70;99.90
22765;DHT22;11549;50.852;3.816;2023-01-30T01:47:51;6.80;99.90
22765;DHT22;11549;50.852;3.816;2023-01-30T01:50:24;6.90;99.90
22765;DHT22;11549;50.852;3.816;2023-01-30T01:52:54;7.00;99.90
22765;DHT22;11549;50.852;3.816;2023-01-30T01:55:24;7.00;99.90
22765;DHT22;11549;50.852;3.816;2023-01-30T01:57:56;7.00;99.90
22765;DHT22;11549;50.852;3.816;2023-01-30T02:00:27;7.00;99.90
22765;DHT22;11549;50.852;3.816;2023-01-30T02:02:57;6.90;99.90
22765;DHT22;11549;50.852;3.816;2023-01-30T02:05:28;6.90;99.90
22765;DHT22;11549;50.852;3.816;2023-01-30T02:08:01;6.90;99.90
22765;DHT22;11549;50.852;3.816;2023-01-30T02:10:36;7.00;99.90
22765;DHT22;11549;50.852;3.816;2023-01-30T02:13:07;7.00;99.90
22765;DHT22;11549;50.852;3.816;2023-01-30T02:15:37;7.10;99.90
22765;DHT22;11549;50.852;3.816;2023-01-30T02:18:06;7.10;99.90
22765;DHT22;11549;50.852;3.816;2023-01-30T02:20:50;7.10;99.90
22765;DHT22;11549;50.852;3.816;2023-01-30T02:23:40;7.10;99.90
22765;DHT22;11549;50.852;3.816;2023-01-30T02:26:44;7.10;99.90
22765;DHT22;11549;50.852;3.816;2023-01-30T02:29:38;7.10;99.90
22765;DHT22;11549;50.852;3.816;2023-01-30T02:32:20;7.20;99.90
22765;DHT22;11549;50.852;3.816;2023-01-30T02:34:58;7.20;99.90
22765;DHT22;11549;50.852;3.816;2023-01-30T02:37:41;7.20;99.90
22765;DHT22;11549;50.852;3.816;2023-01-30T02:40:22;7.10;99.90
22765;DHT22;11549;50.852;3.816;2023-01-30T02:43:03;7.20;99.90
22765;DHT22;11549;50.852;3.816;2023-01-30T02:45:40;7.10;99.90
22765;DHT22;11549;50.852;3.816;2023-01-30T02:48:16;7.10;99.90
22765;DHT22;11549;50.852;3.816;2023-01-30T02:50:51;7.10;99.90
22765;DHT22;11549;50.852;3.816;2023-01-30T02:53:23;7.10;99.90
22765;DHT22;11549;50.852;3.816;2023-01-30T02:55:51;7.10;99.90
22765;DHT22;11549;50.852;3.816;2023-01-30T02:58:20;7.10;99.90
22765;DHT22;11549;50.852;3.816;2023-01-30T03:01:02;7.10;99.90
22765;DHT22;11549;50.852;3.816;2023-01-30T03:03:56;7.10;99.90
22765;DHT22;11549;50.852;3.816;2023-01-30T03:06:37;7.10;99.90
22765;DHT22;11549;50.852;3.816;2023-01-30T03:09:15;7.10;99.90
22765;DHT22;11549;50.852;3.816;2023-01-30T03:11:48;7.20;99.90
22765;DHT22;11549;50.852;3.816;2023-01-30T03:14:25;7.00;99.90
22765;DHT22;11549;50.852;3.816;2023-01-30T03:16:56;7.10;99.90
22765;DHT22;11549;50.852;3.816;2023-01-30T03:19:28;7.10;99.90
22765;DHT22;11549;50.852;3.816;2023-01-30T03:21:57;7.20;99.90
22765;DHT22;11549;50.852;3.816;2023-01-30T03:24:25;7.20;99.90
22765;DHT22;11549;50.852;3.816;2023-01-30T03:26:57;7.30;99.90
22765;DHT22;11549;50.852;3.816;2023-01-30T03:29:27;7.30;99.90
22765;DHT22;11549;50.852;3.816;2023-01-30T03:31:55;7.40;99.90
22765;DHT22;11549;50.852;3.816;2023-01-30T03:34:24;7.40;99.90
22765;DHT22;11549;50.852;3.816;2023-01-30T03:36:54;7.40;99.90
22765;DHT22;11549;50.852;3.816;2023-01-30T03:39:22;7.40;99.90
22765;DHT22;11549;50.852;3.816;2023-01-30T03:41:51;7.50;99.90
22765;DHT22;11549;50.852;3.816;2023-01-30T03:44:20;7.50;99.90
22765;DHT22;11549;50.852;3.816;2023-01-30T03:46:48;7.60;99.90
22765;DHT22;11549;50.852;3.816;2023-01-30T03:49:17;7.50;99.90
22765;DHT22;11549;50.852;3.816;2023-01-30T03:51:46;7.50;99.90
22765;DHT22;11549;50.852;3.816;2023-01-30T03:54:16;7.50;99.90
22765;DHT22;11549;50.852;3.816;2023-01-30T03:56:45;7.50;99.90
22765;DHT22;11549;50.852;3.816;2023-01-30T03:59:13;7.50;99.90
22765;DHT22;11549;50.852;3.816;2023-01-30T04:01:42;7.50;99.90
22765;DHT22;11549;50.852;3.816;2023-01-30T04:04:10;7.50;99.90
22765;DHT22;11549;50.852;3.816;2023-01-30T04:06:38;7.60;99.90
22765;DHT22;11549;50.852;3.816;2023-01-30T04:09:07;7.60;99.90
22765;DHT22;11549;50.852;3.816;2023-01-30T04:11:36;7.70;99.90
22765;DHT22;11549;50.852;3.816;2023-01-30T04:14:05;7.60;99.90
22765;DHT22;11549;50.852;3.816;2023-01-30T04:16:33;7.70;99.90
22765;DHT22;11549;50.852;3.816;2023-01-30T04:19:01;7.70;99.90
22765;DHT22;11549;50.852;3.816;2023-01-30T04:21:30;7.60;99.90
22765;DHT22;11549;50.852;3.816;2023-01-30T04:23:58;7.60;99.90
22765;DHT22;11549;50.852;3.816;2023-01-30T04:26:27;7.60;99.90
22765;DHT22;11549;50.852;3.816;2023-01-30T04:28:57;7.70;99.90
22765;DHT22;11549;50.852;3.816;2023-01-30T04:31:25;7.70;99.90
22765;DHT22;11549;50.852;3.816;2023-01-30T04:33:54;7.70;99.90
22765;DHT22;11549;50.852;3.816;2023-01-30T04:36:22;7.80;99.90
22765;DHT22;11549;50.852;3.816;2023-01-30T04:38:50;7.80;99.90
22765;DHT22;11549;50.852;3.816;2023-01-30T04:41:19;7.90;99.90
22765;DHT22;11549;50.852;3.816;2023-01-30T04:43:47;7.90;99.90
22765;DHT22;11549;50.852;3.816;2023-01-30T04:46:17;7.80;99.90
22765;DHT22;11549;50.852;3.816;2023-01-30T04:48:45;7.90;99.90
22765;DHT22;11549;50.852;3.816;2023-01-30T04:51:14;7.80;99.90
22765;DHT22;11549;50.852;3.816;2023-01-30T04:53:42;7.90;99.90
22765;DHT22;11549;50.852;3.816;2023-01-30T04:56:10;7.90;99.90
22765;DHT22;11549;50.852;3.816;2023-01-30T04:58:38;7.90;99.90
22765;DHT22;11549;50.852;3.816;2023-01-30T05:01:14;7.90;99.90
22765;DHT22;11549;50.852;3.816;2023-01-30T05:03:47;7.90;99.90
22765;DHT22;11549;50.852;3.816;2023-01-30T05:06:16;7.90;99.90
22765;DHT22;11549;50.852;3.816;2023-01-30T05:08:47;7.90;99.90
22765;DHT22;11549;50.852;3.816;2023-01-30T05:11:16;7.90;99.90
22765;DHT22;11549;50.852;3.816;2023-01-30T05:13:46;7.90;99.90
22765;DHT22;11549;50.852;3.816;2023-01-30T05:16:14;7.80;99.90
22765;DHT22;11549;50.852;3.816;2023-01-30T05:18:45;7.90;99.90
22765;DHT22;11549;50.852;3.816;2023-01-30T05:21:15;8.00;99.90
22765;DHT22;11549;50.852;3.816;2023-01-30T05:23:44;8.00;99.90
22765;DHT22;11549;50.852;3.816;2023-01-30T05:26:14;7.90;99.90
22765;DHT22;11549;50.852;3.816;2023-01-30T05:28:43;7.80;99.90
22765;DHT22;11549;50.852;3.816;2023-01-30T05:31:13;7.80;99.90
22765;DHT22;11549;50.852;3.816;2023-01-30T05:33:41;7.90;99.90
22765;DHT22;11549;50.852;3.816;2023-01-30T05:36:14;7.90;99.90
22765;DHT22;11549;50.852;3.816;2023-01-30T05:38:44;7.90;99.90
22765;DHT22;11549;50.852;3.816;2023-01-30T05:41:14;7.90;99.90
22765;DHT22;11549;50.852;3.816;2023-01-30T05:43:43;7.90;99.90
22765;DHT22;11549;50.852;3.816;2023-01-30T05:46:11;7.90;99.90
22765;DHT22;11549;50.852;3.816;2023-01-30T05:48:40;7.90;99.90
22765;DHT22;11549;50.852;3.816;2023-01-30T05:51:16;7.80;99.90
22765;DHT22;11549;50.852;3.816;2023-01-30T05:53:45;7.80;99.90
22765;DHT22;11549;50.852;3.816;2023-01-30T05:56:14;7.90;99.90
22765;DHT22;11549;50.852;3.816;2023-01-30T05:58:43;7.90;99.90
22765;DHT22;11549;50.852;3.816;2023-01-30T06:01:12;7.90;99.90
22765;DHT22;11549;50.852;3.816;2023-01-30T06:03:40;7.90;99.90
22765;DHT22;11549;50.852;3.816;2023-01-30T06:06:09;7.90;99.90
22765;DHT22;11549;50.852;3.816;2023-01-30T06:08:40;8.00;99.90
22765;DHT22;11549;50.852;3.816;2023-01-30T06:11:10;8.10;99.90
22765;DHT22;11549;50.852;3.816;2023-01-30T06:13:39;8.10;99.90
22765;DHT22;11549;50.852;3.816;2023-01-30T06:16:10;8.20;99.90
22765;DHT22;11549;50.852;3.816;2023-01-30T06:18:39;8.20;99.90
22765;DHT22;11549;50.852;3.816;2023-01-30T06:21:07;8.20;99.90
22765;DHT22;11549;50.852;3.816;2023-01-30T06:23:36;8.20;99.90
22765;DHT22;11549;50.852;3.816;2023-01-30T06:26:06;8.20;99.90
22765;DHT22;11549;50.852;3.816;2023-01-30T06:28:37;8.20;99.90
22765;DHT22;11549;50.852;3.816;2023-01-30T06:31:06;8.30;99.90
22765;DHT22;11549;50.852;3.816;2023-01-30T06:33:34;8.30;99.90
22765;DHT22;11549;50.852;3.816;2023-01-30T06:36:03;8.40;99.90
22765;DHT22;11549;50.852;3.816;2023-01-30T06:38:32;8.40;99.90
22765;DHT22;11549;50.852;3.816;2023-01-30T06:41:00;8.40;99.90
22765;DHT22;11549;50.852;3.816;2023-01-30T06:43:30;8.40;99.90
22765;DHT22;11549;50.852;3.816;2023-01-30T06:45:58;8.40;99.90
22765;DHT22;11549;50.852;3.816;2023-01-30T06:48:27;8.40;99.90
22765;DHT22;11549;50.852;3.816;2023-01-30T06:50:55;8.50;99.90
22765;DHT22;11549;50.852;3.816;2023-01-30T06:53:24;8.50;99.90
22765;DHT22;11549;50.852;3.816;2023-01-30T06:55:56;8.50;99.90
22765;DHT22;11549;50.852;3.816;2023-01-30T06:58:25;8.40;99.90
22765;DHT22;11549;50.852;3.816;2023-01-30T07:00:55;8.50;99.90
22765;DHT22;11549;50.852;3.816;2023-01-30T07:03:23;8.60;99.90
22765;DHT22;11549;50.852;3.816;2023-01-30T07:05:52;8.70;99.90
22765;DHT22;11549;50.852;3.816;2023-01-30T07:08:20;8.70;99.90
22765;DHT22;11549;50.852;3.816;2023-01-30T07:10:50;8.60;99.90
22765;DHT22;11549;50.852;3.816;2023-01-30T07:13:19;8.60;99.90
22765;DHT22;11549;50.852;3.816;2023-01-30T07:15:47;8.50;99.90
22765;DHT22;11549;50.852;3.816;2023-01-30T07:18:18;8.40;99.90
22765;DHT22;11549;50.852;3.816;2023-01-30T07:20:46;8.30;99.90
22765;DHT22;11549;50.852;3.816;2023-01-30T07:23:16;8.30;99.90
22765;DHT22;11549;50.852;3.816;2023-01-30T07:25:45;8.30;99.90
22765;DHT22;11549;50.852;3.816;2023-01-30T07:28:13;8.40;99.90
22765;DHT22;11549;50.852;3.816;2023-01-30T07:30:41;8.30;99.90
22765;DHT22;11549;50.852;3.816;2023-01-30T07:33:10;8.30;99.90
22765;DHT22;11549;50.852;3.816;2023-01-30T07:35:39;8.30;99.90
22765;DHT22;11549;50.852;3.816;2023-01-30T07:38:08;8.20;99.90
22765;DHT22;11549;50.852;3.816;2023-01-30T07:40:36;8.10;99.90
22765;DHT22;11549;50.852;3.816;2023-01-30T07:43:06;8.00;99.90
22765;DHT22;11549;50.852;3.816;2023-01-30T07:45:36;8.10;99.90
22765;DHT22;11549;50.852;3.816;2023-01-30T07:48:06;8.10;99.90
22765;DHT22;11549;50.852;3.816;2023-01-30T07:50:34;8.10;99.90
22765;DHT22;11549;50.852;3.816;2023-01-30T07:53:05;8.10;99.90
22765;DHT22;11549;50.852;3.816;2023-01-30T07:55:34;8.10;99.90
22765;DHT22;11549;50.852;3.816;2023-01-30T07:58:03;8.10;99.90
22765;DHT22;11549;50.852;3.816;2023-01-30T08:00:31;8.00;99.90
22765;DHT22;11549;50.852;3.816;2023-01-30T08:03:00;8.00;99.90
22765;DHT22;11549;50.852;3.816;2023-01-30T08:05:28;8.10;99.90
22765;DHT22;11549;50.852;3.816;2023-01-30T08:07:57;8.30;99.90
22765;DHT22;11549;50.852;3.816;2023-01-30T08:10:28;8.40;99.90
22765;DHT22;11549;50.852;3.816;2023-01-30T08:12:56;8.50;99.90
22765;DHT22;11549;50.852;3.816;2023-01-30T08:15:25;8.70;99.90
22765;DHT22;11549;50.852;3.816;2023-01-30T08:17:54;8.90;99.90
22765;DHT22;11549;50.852;3.816;2023-01-30T08:20:24;9.40;99.90
22765;DHT22;11549;50.852;3.816;2023-01-30T08:22:53;9.70;99.90
22765;DHT22;11549;50.852;3.816;2023-01-30T08:25:22;9.80;99.90
22765;DHT22;11549;50.852;3.816;2023-01-30T08:27:52;9.60;99.90
22765;DHT22;11549;50.852;3.816;2023-01-30T08:30:21;9.50;99.90
22765;DHT22;11549;50.852;3.816;2023-01-30T08:32:50;9.30;99.90
22765;DHT22;11549;50.852;3.816;2023-01-30T08:35:18;9.20;99.90
22765;DHT22;11549;50.852;3.816;2023-01-30T08:37:46;9.20;99.90
22765;DHT22;11549;50.852;3.816;2023-01-30T08:40:15;9.40;99.90
22765;DHT22;11549;50.852;3.816;2023-01-30T08:42:44;9.60;99.90
22765;DHT22;11549;50.852;3.816;2023-01-30T08:45:14;9.70;99.90
22765;DHT22;11549;50.852;3.816;2023-01-30T08:47:42;9.80;99.90
22765;DHT22;11549;50.852;3.816;2023-01-30T08:50:11;10.00;99.90
22765;DHT22;11549;50.852;3.816;2023-01-30T08:52:39;10.10;99.90
22765;DHT22;11549;50.852;3.816;2023-01-30T08:55:08;10.20;99.90
22765;DHT22;11549;50.852;3.816;2023-01-30T08:57:37;10.50;99.90
22765;DHT22;11549;50.852;3.816;2023-01-30T09:00:07;10.80;99.90
22765;DHT22;11549;50.852;3.816;2023-01-30T09:02:37;11.20;99.90
22765;DHT22;11549;50.852;3.816;2023-01-30T09:05:07;11.40;99.90
22765;DHT22;11549;50.852;3.816;2023-01-30T09:07:36;11.60;99.90
22765;DHT22;11549;50.852;3.816;2023-01-30T09:10:06;11.90;99.90
22765;DHT22;11549;50.852;3.816;2023-01-30T09:12:34;12.10;99.90
22765;DHT22;11549;50.852;3.816;2023-01-30T09:15:03;12.40;99.90
22765;DHT22;11549;50.852;3.816;2023-01-30T09:17:32;12.40;99.90
22765;DHT22;11549;50.852;3.816;2023-01-30T09:20:02;12.60;99.90
22765;DHT22;11549;50.852;3.816;2023-01-30T09:22:30;12.80;99.90
22765;DHT22;11549;50.852;3.816;2023-01-30T09:24:59;13.00;99.90
22765;DHT22;11549;50.852;3.816;2023-01-30T09:27:27;13.20;99.90
22765;DHT22;11549;50.852;3.816;2023-01-30T09:29:55;13.20;99.90
22765;DHT22;11549;50.852;3.816;2023-01-30T09:32:24;13.10;99.90
22765;DHT22;11549;50.852;3.816;2023-01-30T09:34:52;13.30;99.90
22765;DHT22;11549;50.852;3.816;2023-01-30T09:37:22;13.20;99.90
22765;DHT22;11549;50.852;3.816;2023-01-30T09:39:50;13.30;99.90
22765;DHT22;11549;50.852;3.816;2023-01-30T09:42:40;13.40;99.90
22765;DHT22;11549;50.852;3.816;2023-01-30T09:45:21;13.40;99.90
22765;DHT22;11549;50.852;3.816;2023-01-30T09:48:02;13.70;99.90
22765;DHT22;11549;50.852;3.816;2023-01-30T09:53:38;13.80;99.90
22765;DHT22;11549;50.852;3.816;2023-01-30T09:56:10;13.50;99.90
22765;DHT22;11549;50.852;3.816;2023-01-30T09:58:44;13.40;99.90
22765;DHT22;11549;50.852;3.816;2023-01-30T10:01:17;13.30;99.90
22765;DHT22;11549;50.852;3.816;2023-01-30T10:03:58;12.90;99.90
22765;DHT22;11549;50.852;3.816;2023-01-30T10:06:30;13.10;99.90
22765;DHT22;11549;50.852;3.816;2023-01-30T10:09:10;13.10;99.90
22765;DHT22;11549;50.852;3.816;2023-01-30T10:11:51;13.10;99.90
22765;DHT22;11549;50.852;3.816;2023-01-30T10:14:39;13.10;99.90
22765;DHT22;11549;50.852;3.816;2023-01-30T10:17:25;13.30;99.90
22765;DHT22;11549;50.852;3.816;2023-01-30T10:20:13;13.60;99.90
22765;DHT22;11549;50.852;3.816;2023-01-30T10:22:52;13.50;99.90
22765;DHT22;11549;50.852;3.816;2023-01-30T10:25:29;13.60;99.90
22765;DHT22;11549;50.852;3.816;2023-01-30T10:28:04;13.40;99.90
22765;DHT22;11549;50.852;3.816;2023-01-30T10:30:33;13.20;99.90
22765;DHT22;11549;50.852;3.816;2023-01-30T10:33:04;13.10;99.90
22765;DHT22;11549;50.852;3.816;2023-01-30T10:35:34;13.10;99.90
22765;DHT22;11549;50.852;3.816;2023-01-30T10:38:09;13.20;99.90
22765;DHT22;11549;50.852;3.816;2023-01-30T10:40:45;13.30;99.90
22765;DHT22;11549;50.852;3.816;2023-01-30T10:43:19;13.40;99.90
22765;DHT22;11549;50.852;3.816;2023-01-30T10:45:58;13.50;99.90
22765;DHT22;11549;50.852;3.816;2023-01-30T10:48:55;13.40;99.90
22765;DHT22;11549;50.852;3.816;2023-01-30T10:51:33;13.70;99.90
22765;DHT22;11549;50.852;3.816;2023-01-30T10:54:10;13.50;99.90
22765;DHT22;11549;50.852;3.816;2023-01-30T10:56:46;13.60;99.90
22765;DHT22;11549;50.852;3.816;2023-01-30T10:59:26;13.50;99.90
22765;DHT22;11549;50.852;3.816;2023-01-30T11:02:00;13.70;99.90
22765;DHT22;11549;50.852;3.816;2023-01-30T11:04:33;13.60;99.90
22765;DHT22;11549;50.852;3.816;2023-01-30T11:07:06;13.60;99.90
22765;DHT22;11549;50.852;3.816;2023-01-30T11:09:39;13.30;99.90
22765;DHT22;11549;50.852;3.816;2023-01-30T11:12:09;12.60;99.90
22765;DHT22;11549;50.852;3.816;2023-01-30T11:14:52;12.10;99.90
22765;DHT22;11549;50.852;3.816;2023-01-30T11:17:29;11.70;99.90
22765;DHT22;11549;50.852;3.816;2023-01-30T11:20:02;11.70;99.90
22765;DHT22;11549;50.852;3.816;2023-01-30T11:22:33;11.90;99.90
22765;DHT22;11549;50.852;3.816;2023-01-30T11:25:05;12.10;99.90
22765;DHT22;11549;50.852;3.816;2023-01-30T11:27:35;12.20;99.90
22765;DHT22;11549;50.852;3.816;2023-01-30T11:30:12;12.10;99.90
22765;DHT22;11549;50.852;3.816;2023-01-30T11:32:43;11.80;99.90
22765;DHT22;11549;50.852;3.816;2023-01-30T11:35:26;11.60;99.90
22765;DHT22;11549;50.852;3.816;2023-01-30T11:38:11;11.80;99.90
22765;DHT22;11549;50.852;3.816;2023-01-30T11:40:39;12.00;99.90
22765;DHT22;11549;50.852;3.816;2023-01-30T11:43:13;12.00;99.90
22765;DHT22;11549;50.852;3.816;2023-01-30T11:45:43;11.90;99.90
22765;DHT22;11549;50.852;3.816;2023-01-30T11:48:16;11.70;99.90
22765;DHT22;11549;50.852;3.816;2023-01-30T11:51:08;11.80;99.90
22765;DHT22;11549;50.852;3.816;2023-01-30T11:53:39;11.90;99.90
22765;DHT22;11549;50.852;3.816;2023-01-30T11:56:14;11.60;99.90
22765;DHT22;11549;50.852;3.816;2023-01-30T11:58:46;11.40;99.90
22765;DHT22;11549;50.852;3.816;2023-01-30T12:01:18;11.40;99.90
22765;DHT22;11549;50.852;3.816;2023-01-30T12:03:49;11.40;99.90
22765;DHT22;11549;50.852;3.816;2023-01-30T12:06:23;11.50;99.90
22765;DHT22;11549;50.852;3.816;2023-01-30T12:08:53;11.50;99.90
22765;DHT22;11549;50.852;3.816;2023-01-30T12:11:31;11.50;99.90
22765;DHT22;11549;50.852;3.816;2023-01-30T12:14:20;11.50;99.90
22765;DHT22;11549;50.852;3.816;2023-01-30T12:16:57;11.70;99.90
22765;DHT22;11549;50.852;3.816;2023-01-30T12:19:35;11.60;99.90
22765;DHT22;11549;50.852;3.816;2023-01-30T12:22:18;11.50;99.90
22765;DHT22;11549;50.852;3.816;2023-01-30T12:24:56;11.30;99.90
22765;DHT22;11549;50.852;3.816;2023-01-30T12:27:36;11.10;99.90
22765;DHT22;11549;50.852;3.816;2023-01-30T12:30:22;10.90;99.90
22765;DHT22;11549;50.852;3.816;2023-01-30T12:32:54;10.80;99.90
22765;DHT22;11549;50.852;3.816;2023-01-30T12:35:33;10.80;99.90
22765;DHT22;11549;50.852;3.816;2023-01-30T12:38:12;10.60;99.90
22765;DHT22;11549;50.852;3.816;2023-01-30T12:40:50;10.80;99.90
22765;DHT22;11549;50.852;3.816;2023-01-30T12:43:38;10.80;99.90
22765;DHT22;11549;50.852;3.816;2023-01-30T12:46:22;10.90;99.90
22765;DHT22;11549;50.852;3.816;2023-01-30T12:49:04;11.00;99.90
22765;DHT22;11549;50.852;3.816;2023-01-30T12:51:47;10.80;99.90
22765;DHT22;11549;50.852;3.816;2023-01-30T12:54:29;10.70;99.90
22765;DHT22;11549;50.852;3.816;2023-01-30T12:57:12;10.50;99.90
22765;DHT22;11549;50.852;3.816;2023-01-30T12:59:46;10.20;99.90
22765;DHT22;11549;50.852;3.816;2023-01-30T13:02:32;10.10;99.90
22765;DHT22;11549;50.852;3.816;2023-01-30T13:05:16;10.10;99.90
22765;DHT22;11549;50.852;3.816;2023-01-30T13:07:54;9.80;99.90
22765;DHT22;11549;50.852;3.816;2023-01-30T13:10:32;9.80;99.90
22765;DHT22;11549;50.852;3.816;2023-01-30T13:13:09;9.90;99.90
22765;DHT22;11549;50.852;3.816;2023-01-30T13:15:44;9.90;99.90
22765;DHT22;11549;50.852;3.816;2023-01-30T13:18:22;10.20;99.90
22765;DHT22;11549;50.852;3.816;2023-01-30T13:20:57;10.00;99.90
22765;DHT22;11549;50.852;3.816;2023-01-30T13:23:40;9.80;99.90
22765;DHT22;11549;50.852;3.816;2023-01-30T13:26:13;9.70;99.90
22765;DHT22;11549;50.852;3.816;2023-01-30T13:28:47;9.70;99.90
22765;DHT22;11549;50.852;3.816;2023-01-30T13:31:17;9.70;99.90
22765;DHT22;11549;50.852;3.816;2023-01-30T13:33:50;9.80;99.90
22765;DHT22;11549;50.852;3.816;2023-01-30T13:36:26;9.80;99.90
22765;DHT22;11549;50.852;3.816;2023-01-30T13:38:59;9.80;99.90
22765;DHT22;11549;50.852;3.816;2023-01-30T13:41:34;10.00;99.90
22765;DHT22;11549;50.852;3.816;2023-01-30T13:44:14;10.00;99.90
22765;DHT22;11549;50.852;3.816;2023-01-30T13:46:44;10.00;99.90
22765;DHT22;11549;50.852;3.816;2023-01-30T13:49:19;9.90;99.90
22765;DHT22;11549;50.852;3.816;2023-01-30T13:51:53;9.70;99.90
22765;DHT22;11549;50.852;3.816;2023-01-30T13:54:40;9.80;99.90
22765;DHT22;11549;50.852;3.816;2023-01-30T13:57:21;9.70;99.90
22765;DHT22;11549;50.852;3.816;2023-01-30T14:00:06;9.70;99.90
22765;DHT22;11549;50.852;3.816;2023-01-30T14:06:03;9.70;99.90
22765;DHT22;11549;50.852;3.816;2023-01-30T14:08:38;9.80;99.90
22765;DHT22;11549;50.852;3.816;2023-01-30T14:11:32;9.80;99.90
22765;DHT22;11549;50.852;3.816;2023-01-30T14:14:04;9.90;99.90
22765;DHT22;11549;50.852;3.816;2023-01-30T14:16:44;9.90;99.90
22765;DHT22;11549;50.852;3.816;2023-01-30T14:19:37;10.00;99.90
22765;DHT22;11549;50.852;3.816;2023-01-30T14:22:26;9.90;99.90
22765;DHT22;11549;50.852;3.816;2023-01-30T14:25:34;10.00;99.90
22765;DHT22;11549;50.852;3.816;2023-01-30T14:31:51;10.00;99.90
22765;DHT22;11549;50.852;3.816;2023-01-30T14:41:23;9.90;99.90
22765;DHT22;11549;50.852;3.816;2023-01-30T14:43:52;10.00;99.90
22765;DHT22;11549;50.852;3.816;2023-01-30T14:46:42;9.90;99.90
22765;DHT22;11549;50.852;3.816;2023-01-30T14:49:28;9.70;99.90
22765;DHT22;11549;50.852;3.816;2023-01-30T14:51:59;9.70;99.90
22765;DHT22;11549;50.852;3.816;2023-01-30T14:54:33;9.60;99.90
22765;DHT22;11549;50.852;3.816;2023-01-30T14:57:24;9.70;99.90
22765;DHT22;11549;50.852;3.816;2023-01-30T15:00:03;9.50;99.90
22765;DHT22;11549;50.852;3.816;2023-01-30T15:02:48;9.50;99.90
22765;DHT22;11549;50.852;3.816;2023-01-30T15:05:19;9.60;99.90
22765;DHT22;11549;50.852;3.816;2023-01-30T15:07:55;9.60;99.90
22765;DHT22;11549;50.852;3.816;2023-01-30T15:10:51;9.60;99.90
22765;DHT22;11549;50.852;3.816;2023-01-30T15:13:39;9.60;99.90
22765;DHT22;11549;50.852;3.816;2023-01-30T15:16:24;9.70;99.90
22765;DHT22;11549;50.852;3.816;2023-01-30T15:19:07;9.70;99.90
22765;DHT22;11549;50.852;3.816;2023-01-30T15:21:50;9.60;99.90
22765;DHT22;11549;50.852;3.816;2023-01-30T15:27:33;9.30;99.90
22765;DHT22;11549;50.852;3.816;2023-01-30T15:30:15;9.20;99.90
22765;DHT22;11549;50.852;3.816;2023-01-30T15:32:46;9.10;99.90
22765;DHT22;11549;50.852;3.816;2023-01-30T15:35:21;9.00;99.90
22765;DHT22;11549;50.852;3.816;2023-01-30T15:37:52;9.00;99.90
22765;DHT22;11549;50.852;3.816;2023-01-30T15:40:22;9.10;99.90
22765;DHT22;11549;50.852;3.816;2023-01-30T15:42:56;9.00;99.90
22765;DHT22;11549;50.852;3.816;2023-01-30T15:45:36;9.10;99.90
22765;DHT22;11549;50.852;3.816;2023-01-30T15:48:26;8.90;99.90
22765;DHT22;11549;50.852;3.816;2023-01-30T15:50:57;8.80;99.90
22765;DHT22;11549;50.852;3.816;2023-01-30T15:53:28;8.80;99.90
22765;DHT22;11549;50.852;3.816;2023-01-30T15:55:59;8.80;99.90
22765;DHT22;11549;50.852;3.816;2023-01-30T15:58:29;8.70;99.90
22765;DHT22;11549;50.852;3.816;2023-01-30T16:01:00;8.60;99.90
22765;DHT22;11549;50.852;3.816;2023-01-30T16:03:31;8.50;99.90
22765;DHT22;11549;50.852;3.816;2023-01-30T16:06:02;8.50;99.90
22765;DHT22;11549;50.852;3.816;2023-01-30T16:08:33;8.30;99.90
22765;DHT22;11549;50.852;3.816;2023-01-30T16:11:02;8.20;99.90
22765;DHT22;11549;50.852;3.816;2023-01-30T16:13:30;8.20;99.90
22765;DHT22;11549;50.852;3.816;2023-01-30T16:16:03;8.10;99.90
22765;DHT22;11549;50.852;3.816;2023-01-30T16:18:36;8.10;99.90
22765;DHT22;11549;50.852;3.816;2023-01-30T16:21:07;8.00;99.90
22765;DHT22;11549;50.852;3.816;2023-01-30T16:23:40;8.10;99.90
22765;DHT22;11549;50.852;3.816;2023-01-30T16:26:14;8.00;99.90
22765;DHT22;11549;50.852;3.816;2023-01-30T16:28:44;8.10;99.90
22765;DHT22;11549;50.852;3.816;2023-01-30T16:31:14;8.10;99.90
22765;DHT22;11549;50.852;3.816;2023-01-30T16:33:49;8.10;99.90
22765;DHT22;11549;50.852;3.816;2023-01-30T16:36:31;8.20;99.90
22765;DHT22;11549;50.852;3.816;2023-01-30T16:39:00;8.10;99.90
22765;DHT22;11549;50.852;3.816;2023-01-30T16:41:34;8.10;99.90